sensor_id;sensor_type;location;lat;lon;timestamp;P1;durP1;ratioP1;P2;durP2;ratioP2
49582;SDS011;36329;48.816;44.624;2023-11-19T00:00:43;4.9;;;3.6;;
49582;SDS011;36329;48.816;44.624;2023-11-19T00:03:45;5;;;3.4;;
49582;SDS011;36329;48.816;44.624;2023-11-19T00:06:47;4.8;;;3.3;;
49582;SDS011;36329;48.816;44.624;2023-11-19T00:09:49;5.5;;;3.4;;
49582;SDS011;36329;48.816;44.624;2023-11-19T00:12:50;5.4;;;3.6;;
49582;SDS011;36329;48.816;44.624;2023-11-19T00:15:52;5.1;;;3.6;;
49582;SDS011;36329;48.816;44.624;2023-11-19T00:18:54;5.6;;;3.8;;
49582;SDS011;36329;48.816;44.624;2023-11-19T00:21:56;4.8;;;3.4;;
49582;SDS011;36329;48.816;44.624;2023-11-19T00:24:59;5;;;3.5;;
49582;SDS011;36329;48.816;44.624;2023-11-19T00:28:01;4.7;;;3.4;;
49582;SDS011;36329;48.816;44.624;2023-11-19T00:31:03;4.9;;;3.8;;
49582;SDS011;36329;48.816;44.624;2023-11-19T00:34:05;5.8;;;3.7;;
49582;SDS011;36329;48.816;44.624;2023-11-19T00:37:06;5.1;;;3.3;;
49582;SDS011;36329;48.816;44.624;2023-11-19T00:40:09;4.4;;;3;;
49582;SDS011;36329;48.816;44.624;2023-11-19T00:43:11;3.9;;;3;;
49582;SDS011;36329;48.816;44.624;2023-11-19T00:46:13;5.3;;;3.5;;
49582;SDS011;36329;48.816;44.624;2023-11-19T00:49:14;4.8;;;3.2;;
49582;SDS011;36329;48.816;44.624;2023-11-19T00:52:16;4.9;;;3.3;;
49582;SDS011;36329;48.816;44.624;2023-11-19T00:55:19;4.9;;;3.5;;
49582;SDS011;36329;48.816;44.624;2023-11-19T00:58:21;5.3;;;3.7;;
49582;SDS011;36329;48.816;44.624;2023-11-19T01:01:23;5.6;;;3.6;;
49582;SDS011;36329;48.816;44.624;2023-11-19T01:04:25;5;;;3.3;;
49582;SDS011;36329;48.816;44.624;2023-11-19T01:07:27;5.2;;;3.3;;
49582;SDS011;36329;48.816;44.624;2023-11-19T01:10:29;5.2;;;3.2;;
49582;SDS011;36329;48.816;44.624;2023-11-19T01:13:31;4.5;;;3.2;;
49582;SDS011;36329;48.816;44.624;2023-11-19T01:16:33;4.8;;;3.4;;
49582;SDS011;36329;48.816;44.624;2023-11-19T01:19:34;4.7;;;3.3;;
49582;SDS011;36329;48.816;44.624;2023-11-19T01:22:36;5.8;;;3.5;;
49582;SDS011;36329;48.816;44.624;2023-11-19T01:25:39;4.1;;;3;;
49582;SDS011;36329;48.816;44.624;2023-11-19T01:28:41;4.7;;;3.2;;
49582;SDS011;36329;48.816;44.624;2023-11-19T01:31:43;5;;;3.3;;
49582;SDS011;36329;48.816;44.624;2023-11-19T01:34:47;5.9;;;3.1;;
49582;SDS011;36329;48.816;44.624;2023-11-19T01:37:49;4.3;;;3.1;;
49582;SDS011;36329;48.816;44.624;2023-11-19T01:40:51;4.2;;;2.9;;
49582;SDS011;36329;48.816;44.624;2023-11-19T01:43:59;3.9;;;2.6;;
49582;SDS011;36329;48.816;44.624;2023-11-19T01:47:01;4.5;;;2.5;;
49582;SDS011;36329;48.816;44.624;2023-11-19T01:50:04;3.7;;;2.5;;
49582;SDS011;36329;48.816;44.624;2023-11-19T01:53:08;5.2;;;2.6;;
49582;SDS011;36329;48.816;44.624;2023-11-19T01:56:11;3.3;;;2.4;;
49582;SDS011;36329;48.816;44.624;2023-11-19T01:59:16;4.1;;;2.7;;
49582;SDS011;36329;48.816;44.624;2023-11-19T02:02:18;3.9;;;2.9;;
49582;SDS011;36329;48.816;44.624;2023-11-19T02:05:20;4;;;2.8;;
49582;SDS011;36329;48.816;44.624;2023-11-19T02:08:22;5.1;;;2.9;;
49582;SDS011;36329;48.816;44.624;2023-11-19T02:11:24;4.7;;;3.2;;
49582;SDS011;36329;48.816;44.624;2023-11-19T02:14:26;4.6;;;3.1;;
49582;SDS011;36329;48.816;44.624;2023-11-19T02:17:29;5.4;;;3.2;;
49582;SDS011;36329;48.816;44.624;2023-11-19T02:20:32;4.1;;;2.8;;
49582;SDS011;36329;48.816;44.624;2023-11-19T02:23:34;3.8;;;2.7;;
49582;SDS011;36329;48.816;44.624;2023-11-19T02:26:38;3.8;;;2.6;;
49582;SDS011;36329;48.816;44.624;2023-11-19T02:29:41;3.8;;;2.7;;
49582;SDS011;36329;48.816;44.624;2023-11-19T02:32:43;4.4;;;2.6;;
49582;SDS011;36329;48.816;44.624;2023-11-19T02:35:45;4.1;;;2.9;;
49582;SDS011;36329;48.816;44.624;2023-11-19T02:38:47;3.5;;;2.6;;
49582;SDS011;36329;48.816;44.624;2023-11-19T02:41:49;3.7;;;2.7;;
49582;SDS011;36329;48.816;44.624;2023-11-19T02:44:52;3.7;;;2.7;;
49582;SDS011;36329;48.816;44.624;2023-11-19T02:47:54;4.7;;;3;;
49582;SDS011;36329;48.816;44.624;2023-11-19T02:50:56;4.9;;;3.2;;
49582;SDS011;36329;48.816;44.624;2023-11-19T02:53:58;4.6;;;3.3;;
49582;SDS011;36329;48.816;44.624;2023-11-19T02:56:59;4.5;;;3;;
49582;SDS011;36329;48.816;44.624;2023-11-19T03:00:01;5.1;;;3.1;;
49582;SDS011;36329;48.816;44.624;2023-11-19T03:03:06;4.9;;;3.2;;
49582;SDS011;36329;48.816;44.624;2023-11-19T03:06:08;5;;;3.2;;
49582;SDS011;36329;48.816;44.624;2023-11-19T03:09:10;7.6;;;4.1;;
49582;SDS011;36329;48.816;44.624;2023-11-19T03:12:12;5.1;;;3.3;;
49582;SDS011;36329;48.816;44.624;2023-11-19T03:15:13;4.1;;;3.1;;
49582;SDS011;36329;48.816;44.624;2023-11-19T03:18:16;4.9;;;2.9;;
49582;SDS011;36329;48.816;44.624;2023-11-19T03:21:17;5.4;;;3.3;;
49582;SDS011;36329;48.816;44.624;2023-11-19T03:24:20;4.3;;;3.1;;
49582;SDS011;36329;48.816;44.624;2023-11-19T03:27:22;5.2;;;3.2;;
49582;SDS011;36329;48.816;44.624;2023-11-19T03:30:23;4.2;;;3;;
49582;SDS011;36329;48.816;44.624;2023-11-19T03:33:25;6.3;;;3.1;;
49582;SDS011;36329;48.816;44.624;2023-11-19T03:36:31;5.4;;;3;;
49582;SDS011;36329;48.816;44.624;2023-11-19T03:39:34;4.5;;;3.1;;
49582;SDS011;36329;48.816;44.624;2023-11-19T03:42:35;5.1;;;3.3;;
49582;SDS011;36329;48.816;44.624;2023-11-19T03:45:38;5.3;;;3.3;;
49582;SDS011;36329;48.816;44.624;2023-11-19T03:48:40;5;;;3.1;;
49582;SDS011;36329;48.816;44.624;2023-11-19T03:51:42;4.6;;;3.1;;
49582;SDS011;36329;48.816;44.624;2023-11-19T03:54:44;4.5;;;3;;
49582;SDS011;36329;48.816;44.624;2023-11-19T03:57:46;4.1;;;2.9;;
49582;SDS011;36329;48.816;44.624;2023-11-19T04:00:48;3.7;;;2.8;;
49582;SDS011;36329;48.816;44.624;2023-11-19T04:03:50;4.2;;;2.8;;
49582;SDS011;36329;48.816;44.624;2023-11-19T04:06:52;5.4;;;3;;
49582;SDS011;36329;48.816;44.624;2023-11-19T04:09:55;4.5;;;2.8;;
49582;SDS011;36329;48.816;44.624;2023-11-19T04:12:57;3.6;;;2.6;;
49582;SDS011;36329;48.816;44.624;2023-11-19T04:15:59;3.5;;;2.6;;
49582;SDS011;36329;48.816;44.624;2023-11-19T04:19:01;3.7;;;2.4;;
49582;SDS011;36329;48.816;44.624;2023-11-19T04:22:03;3.7;;;2.6;;
49582;SDS011;36329;48.816;44.624;2023-11-19T04:25:05;4.4;;;2.3;;
49582;SDS011;36329;48.816;44.624;2023-11-19T04:28:08;2.6;;;2.1;;
49582;SDS011;36329;48.816;44.624;2023-11-19T04:31:10;3.2;;;2.1;;
49582;SDS011;36329;48.816;44.624;2023-11-19T04:34:12;3.1;;;2.1;;
49582;SDS011;36329;48.816;44.624;2023-11-19T04:37:14;3.2;;;2.3;;
49582;SDS011;36329;48.816;44.624;2023-11-19T04:40:17;3.1;;;2.4;;
49582;SDS011;36329;48.816;44.624;2023-11-19T04:43:20;3.7;;;2.4;;
49582;SDS011;36329;48.816;44.624;2023-11-19T04:46:22;3.3;;;2.3;;
49582;SDS011;36329;48.816;44.624;2023-11-19T04:49:24;4.2;;;2.6;;
49582;SDS011;36329;48.816;44.624;2023-11-19T04:52:26;3.6;;;2.4;;
49582;SDS011;36329;48.816;44.624;2023-11-19T04:55:28;3.4;;;2.2;;
49582;SDS011;36329;48.816;44.624;2023-11-19T04:58:30;5;;;2.3;;
49582;SDS011;36329;48.816;44.624;2023-11-19T05:01:32;4.5;;;2.4;;
49582;SDS011;36329;48.816;44.624;2023-11-19T05:04:34;4.7;;;2.4;;
49582;SDS011;36329;48.816;44.624;2023-11-19T05:07:36;3.5;;;2.4;;
49582;SDS011;36329;48.816;44.624;2023-11-19T05:10:38;3.1;;;2.2;;
49582;SDS011;36329;48.816;44.624;2023-11-19T05:13:40;3.5;;;2.5;;
49582;SDS011;36329;48.816;44.624;2023-11-19T05:16:42;3.5;;;2.3;;
49582;SDS011;36329;48.816;44.624;2023-11-19T05:19:44;3.9;;;2.5;;
49582;SDS011;36329;48.816;44.624;2023-11-19T05:22:45;3.9;;;2.5;;
49582;SDS011;36329;48.816;44.624;2023-11-19T05:25:47;3.2;;;2.4;;
49582;SDS011;36329;48.816;44.624;2023-11-19T05:28:49;3.1;;;2.2;;
49582;SDS011;36329;48.816;44.624;2023-11-19T05:31:52;4.1;;;2.4;;
49582;SDS011;36329;48.816;44.624;2023-11-19T05:34:54;3;;;2.3;;
49582;SDS011;36329;48.816;44.624;2023-11-19T05:37:55;3.8;;;2.2;;
49582;SDS011;36329;48.816;44.624;2023-11-19T05:40:58;3.2;;;2.1;;
49582;SDS011;36329;48.816;44.624;2023-11-19T05:44:00;3;;;2;;
49582;SDS011;36329;48.816;44.624;2023-11-19T05:47:02;3.5;;;2.1;;
49582;SDS011;36329;48.816;44.624;2023-11-19T05:50:04;3.9;;;2.4;;
49582;SDS011;36329;48.816;44.624;2023-11-19T05:53:06;2.1;;;1.8;;
49582;SDS011;36329;48.816;44.624;2023-11-19T05:56:09;2.9;;;2.2;;
49582;SDS011;36329;48.816;44.624;2023-11-19T05:59:11;2.8;;;2;;
49582;SDS011;36329;48.816;44.624;2023-11-19T06:02:13;4.3;;;2.2;;
49582;SDS011;36329;48.816;44.624;2023-11-19T06:05:14;3;;;1.9;;
49582;SDS011;36329;48.816;44.624;2023-11-19T06:08:16;2.5;;;1.9;;
49582;SDS011;36329;48.816;44.624;2023-11-19T06:11:18;4.3;;;2.1;;
49582;SDS011;36329;48.816;44.624;2023-11-19T06:14:20;2.4;;;1.7;;
49582;SDS011;36329;48.816;44.624;2023-11-19T06:17:22;2.6;;;1.7;;
49582;SDS011;36329;48.816;44.624;2023-11-19T06:20:25;2.2;;;1.9;;
49582;SDS011;36329;48.816;44.624;2023-11-19T06:23:27;2.4;;;1.9;;
49582;SDS011;36329;48.816;44.624;2023-11-19T06:26:29;3;;;2;;
49582;SDS011;36329;48.816;44.624;2023-11-19T06:29:31;3.8;;;1.9;;
49582;SDS011;36329;48.816;44.624;2023-11-19T06:32:33;2.9;;;2.1;;
49582;SDS011;36329;48.816;44.624;2023-11-19T06:35:34;2.2;;;1.9;;
49582;SDS011;36329;48.816;44.624;2023-11-19T06:38:36;4.3;;;1.9;;
49582;SDS011;36329;48.816;44.624;2023-11-19T06:41:38;6.1;;;1.9;;
49582;SDS011;36329;48.816;44.624;2023-11-19T06:44:40;2.2;;;1.6;;
49582;SDS011;36329;48.816;44.624;2023-11-19T06:47:43;2.7;;;2;;
49582;SDS011;36329;48.816;44.624;2023-11-19T06:50:45;2.6;;;1.8;;
49582;SDS011;36329;48.816;44.624;2023-11-19T06:53:47;2.4;;;1.9;;
49582;SDS011;36329;48.816;44.624;2023-11-19T06:56:49;2.9;;;1.9;;
49582;SDS011;36329;48.816;44.624;2023-11-19T06:59:50;2.4;;;1.9;;
49582;SDS011;36329;48.816;44.624;2023-11-19T07:02:52;3.4;;;2.4;;
49582;SDS011;36329;48.816;44.624;2023-11-19T07:05:54;3.9;;;2.5;;
49582;SDS011;36329;48.816;44.624;2023-11-19T07:08:56;3;;;1.8;;
49582;SDS011;36329;48.816;44.624;2023-11-19T07:11:58;3.4;;;2.1;;
49582;SDS011;36329;48.816;44.624;2023-11-19T07:15:00;3.7;;;2.1;;
49582;SDS011;36329;48.816;44.624;2023-11-19T07:18:10;3.8;;;2.3;;
49582;SDS011;36329;48.816;44.624;2023-11-19T07:21:12;3.2;;;2;;
49582;SDS011;36329;48.816;44.624;2023-11-19T07:24:14;3.5;;;2;;
49582;SDS011;36329;48.816;44.624;2023-11-19T07:27:16;3.2;;;2;;
49582;SDS011;36329;48.816;44.624;2023-11-19T07:30:18;3.3;;;2;;
49582;SDS011;36329;48.816;44.624;2023-11-19T07:33:20;4.6;;;1.9;;
49582;SDS011;36329;48.816;44.624;2023-11-19T07:36:22;5;;;2.4;;
49582;SDS011;36329;48.816;44.624;2023-11-19T07:39:24;3.3;;;2.4;;
49582;SDS011;36329;48.816;44.624;2023-11-19T07:42:26;4.7;;;2.4;;
49582;SDS011;36329;48.816;44.624;2023-11-19T07:45:28;3.8;;;2.8;;
49582;SDS011;36329;48.816;44.624;2023-11-19T07:48:30;5.6;;;3.2;;
49582;SDS011;36329;48.816;44.624;2023-11-19T07:51:32;4.1;;;2.6;;
49582;SDS011;36329;48.816;44.624;2023-11-19T07:54:34;4.9;;;2.6;;
49582;SDS011;36329;48.816;44.624;2023-11-19T07:57:36;5;;;3;;
49582;SDS011;36329;48.816;44.624;2023-11-19T08:00:38;5;;;2.6;;
49582;SDS011;36329;48.816;44.624;2023-11-19T08:03:40;5.4;;;2.8;;
49582;SDS011;36329;48.816;44.624;2023-11-19T08:06:41;4.3;;;3;;
49582;SDS011;36329;48.816;44.624;2023-11-19T08:09:43;5.2;;;3.1;;
49582;SDS011;36329;48.816;44.624;2023-11-19T08:12:46;3.4;;;2.4;;
49582;SDS011;36329;48.816;44.624;2023-11-19T08:15:48;5.6;;;2.6;;
49582;SDS011;36329;48.816;44.624;2023-11-19T08:18:50;3.5;;;2.3;;
49582;SDS011;36329;48.816;44.624;2023-11-19T08:21:52;4.7;;;2.5;;
49582;SDS011;36329;48.816;44.624;2023-11-19T08:24:54;4.9;;;2.6;;
49582;SDS011;36329;48.816;44.624;2023-11-19T08:27:56;4.4;;;2.3;;
49582;SDS011;36329;48.816;44.624;2023-11-19T08:30:58;4.8;;;2.5;;
49582;SDS011;36329;48.816;44.624;2023-11-19T08:34:00;5.6;;;2.6;;
49582;SDS011;36329;48.816;44.624;2023-11-19T08:37:02;3.7;;;2.5;;
49582;SDS011;36329;48.816;44.624;2023-11-19T08:40:05;5.7;;;2.8;;
49582;SDS011;36329;48.816;44.624;2023-11-19T08:43:08;8.3;;;5.2;;
49582;SDS011;36329;48.816;44.624;2023-11-19T08:46:10;7.7;;;4.5;;
49582;SDS011;36329;48.816;44.624;2023-11-19T08:49:12;3.8;;;2.4;;
49582;SDS011;36329;48.816;44.624;2023-11-19T08:52:14;3.3;;;2.1;;
49582;SDS011;36329;48.816;44.624;2023-11-19T08:55:16;3;;;2.3;;
49582;SDS011;36329;48.816;44.624;2023-11-19T08:58:18;2.5;;;1.9;;
49582;SDS011;36329;48.816;44.624;2023-11-19T09:01:20;2.9;;;2;;
49582;SDS011;36329;48.816;44.624;2023-11-19T09:04:22;2.9;;;2;;
49582;SDS011;36329;48.816;44.624;2023-11-19T09:07:24;3.5;;;1.9;;
49582;SDS011;36329;48.816;44.624;2023-11-19T09:10:26;3.2;;;2.1;;
49582;SDS011;36329;48.816;44.624;2023-11-19T09:13:28;4.1;;;2.2;;
49582;SDS011;36329;48.816;44.624;2023-11-19T09:16:30;5;;;2.5;;
49582;SDS011;36329;48.816;44.624;2023-11-19T09:19:32;4.8;;;2.1;;
49582;SDS011;36329;48.816;44.624;2023-11-19T09:22:35;3.3;;;1.8;;
49582;SDS011;36329;48.816;44.624;2023-11-19T09:25:37;3.2;;;1.8;;
49582;SDS011;36329;48.816;44.624;2023-11-19T09:28:39;2.1;;;1.6;;
49582;SDS011;36329;48.816;44.624;2023-11-19T09:31:41;5.3;;;2.1;;
49582;SDS011;36329;48.816;44.624;2023-11-19T09:34:43;9.7;;;5.9;;
49582;SDS011;36329;48.816;44.624;2023-11-19T09:37:45;4.5;;;1.9;;
49582;SDS011;36329;48.816;44.624;2023-11-19T09:40:47;2.1;;;1.6;;
49582;SDS011;36329;48.816;44.624;2023-11-19T09:43:49;6.6;;;1.9;;
49582;SDS011;36329;48.816;44.624;2023-11-19T09:46:51;2.7;;;2;;
49582;SDS011;36329;48.816;44.624;2023-11-19T09:49:54;2.2;;;1.5;;
49582;SDS011;36329;48.816;44.624;2023-11-19T09:52:56;2.6;;;1.6;;
49582;SDS011;36329;48.816;44.624;2023-11-19T09:55:58;3;;;1.7;;
49582;SDS011;36329;48.816;44.624;2023-11-19T09:59:01;2.3;;;1.6;;
49582;SDS011;36329;48.816;44.624;2023-11-19T10:02:03;2.8;;;1.9;;
49582;SDS011;36329;48.816;44.624;2023-11-19T10:05:06;4.4;;;2;;
49582;SDS011;36329;48.816;44.624;2023-11-19T10:08:09;2.2;;;1.7;;
49582;SDS011;36329;48.816;44.624;2023-11-19T10:11:11;2.7;;;1.7;;
49582;SDS011;36329;48.816;44.624;2023-11-19T10:14:13;3;;;1.8;;
49582;SDS011;36329;48.816;44.624;2023-11-19T10:17:16;2.9;;;1.7;;
49582;SDS011;36329;48.816;44.624;2023-11-19T10:20:18;2.5;;;1.5;;
49582;SDS011;36329;48.816;44.624;2023-11-19T10:23:20;5.3;;;3.5;;
49582;SDS011;36329;48.816;44.624;2023-11-19T10:26:23;3.2;;;1.7;;
49582;SDS011;36329;48.816;44.624;2023-11-19T10:29:25;2.3;;;1.8;;
49582;SDS011;36329;48.816;44.624;2023-11-19T10:32:27;2.2;;;1.6;;
49582;SDS011;36329;48.816;44.624;2023-11-19T10:35:29;3.8;;;1.7;;
49582;SDS011;36329;48.816;44.624;2023-11-19T10:38:31;3.9;;;1.6;;
49582;SDS011;36329;48.816;44.624;2023-11-19T10:41:33;3.1;;;1.8;;
49582;SDS011;36329;48.816;44.624;2023-11-19T10:44:35;3.1;;;1.7;;
49582;SDS011;36329;48.816;44.624;2023-11-19T10:47:37;2.2;;;1.5;;
49582;SDS011;36329;48.816;44.624;2023-11-19T10:50:42;1.9;;;1.5;;
49582;SDS011;36329;48.816;44.624;2023-11-19T10:53:45;2;;;1.4;;
49582;SDS011;36329;48.816;44.624;2023-11-19T10:56:47;2.2;;;1.6;;
49582;SDS011;36329;48.816;44.624;2023-11-19T10:59:59;2.5;;;1.5;;
49582;SDS011;36329;48.816;44.624;2023-11-19T11:03:05;2.6;;;1.5;;
49582;SDS011;36329;48.816;44.624;2023-11-19T11:06:13;2.5;;;1.5;;
49582;SDS011;36329;48.816;44.624;2023-11-19T11:09:15;1.8;;;1.4;;
49582;SDS011;36329;48.816;44.624;2023-11-19T11:12:18;2.4;;;1.3;;
49582;SDS011;36329;48.816;44.624;2023-11-19T11:15:24;2.7;;;1.4;;
49582;SDS011;36329;48.816;44.624;2023-11-19T11:18:28;3.8;;;1.6;;
49582;SDS011;36329;48.816;44.624;2023-11-19T11:21:30;2.9;;;1.3;;
49582;SDS011;36329;48.816;44.624;2023-11-19T11:24:40;2.7;;;1.5;;
49582;SDS011;36329;48.816;44.624;2023-11-19T11:27:57;3.5;;;1.4;;
49582;SDS011;36329;48.816;44.624;2023-11-19T11:31:09;2.3;;;1.5;;
49582;SDS011;36329;48.816;44.624;2023-11-19T11:34:35;2.1;;;1.4;;
49582;SDS011;36329;48.816;44.624;2023-11-19T11:37:50;2.8;;;1.5;;
49582;SDS011;36329;48.816;44.624;2023-11-19T11:44:24;2.5;;;1.3;;
49582;SDS011;36329;48.816;44.624;2023-11-19T11:51:08;2.9;;;1.4;;
49582;SDS011;36329;48.816;44.624;2023-11-19T11:54:11;2.5;;;1.3;;
49582;SDS011;36329;48.816;44.624;2023-11-19T11:57:27;2.2;;;1.4;;
49582;SDS011;36329;48.816;44.624;2023-11-19T12:00:40;2.2;;;1.2;;
49582;SDS011;36329;48.816;44.624;2023-11-19T12:03:42;1.5;;;1.1;;
49582;SDS011;36329;48.816;44.624;2023-11-19T12:06:52;2.7;;;1.3;;
49582;SDS011;36329;48.816;44.624;2023-11-19T12:10:06;3.5;;;1.2;;
49582;SDS011;36329;48.816;44.624;2023-11-19T12:13:10;1.6;;;1.2;;
49582;SDS011;36329;48.816;44.624;2023-11-19T12:16:13;5.3;;;1.5;;
49582;SDS011;36329;48.816;44.624;2023-11-19T12:19:15;2.2;;;1.2;;
49582;SDS011;36329;48.816;44.624;2023-11-19T12:22:17;2.2;;;1.2;;
49582;SDS011;36329;48.816;44.624;2023-11-19T12:25:19;2.3;;;1.3;;
49582;SDS011;36329;48.816;44.624;2023-11-19T12:28:22;2;;;1.2;;
49582;SDS011;36329;48.816;44.624;2023-11-19T12:31:24;4.2;;;1.3;;
49582;SDS011;36329;48.816;44.624;2023-11-19T12:34:26;2.5;;;1.1;;
49582;SDS011;36329;48.816;44.624;2023-11-19T12:37:28;1.9;;;1.2;;
49582;SDS011;36329;48.816;44.624;2023-11-19T12:40:31;1.3;;;1.1;;
49582;SDS011;36329;48.816;44.624;2023-11-19T12:43:33;4;;;1.3;;
49582;SDS011;36329;48.816;44.624;2023-11-19T12:46:35;1.5;;;1.2;;
49582;SDS011;36329;48.816;44.624;2023-11-19T12:49:37;7.4;;;1.3;;
49582;SDS011;36329;48.816;44.624;2023-11-19T12:52:39;1.9;;;1.2;;
49582;SDS011;36329;48.816;44.624;2023-11-19T12:55:41;2.7;;;1.3;;
49582;SDS011;36329;48.816;44.624;2023-11-19T12:58:43;3.6;;;1.4;;
49582;SDS011;36329;48.816;44.624;2023-11-19T13:01:53;3.1;;;1.2;;
49582;SDS011;36329;48.816;44.624;2023-11-19T13:04:56;2.4;;;1.3;;
49582;SDS011;36329;48.816;44.624;2023-11-19T13:07:58;2.1;;;1.3;;
49582;SDS011;36329;48.816;44.624;2023-11-19T13:11:00;1.7;;;1.3;;
49582;SDS011;36329;48.816;44.624;2023-11-19T13:14:03;4.7;;;1.5;;
49582;SDS011;36329;48.816;44.624;2023-11-19T13:17:06;2.1;;;1.4;;
49582;SDS011;36329;48.816;44.624;2023-11-19T13:20:08;3.1;;;1.4;;
49582;SDS011;36329;48.816;44.624;2023-11-19T13:23:11;2;;;1.5;;
49582;SDS011;36329;48.816;44.624;2023-11-19T13:26:13;3.6;;;1.6;;
49582;SDS011;36329;48.816;44.624;2023-11-19T13:29:15;1.9;;;1.2;;
49582;SDS011;36329;48.816;44.624;2023-11-19T13:32:17;2.9;;;1.3;;
49582;SDS011;36329;48.816;44.624;2023-11-19T13:35:19;2.6;;;1.1;;
49582;SDS011;36329;48.816;44.624;2023-11-19T13:38:21;3.4;;;1.4;;
49582;SDS011;36329;48.816;44.624;2023-11-19T13:41:23;1.6;;;1.1;;
49582;SDS011;36329;48.816;44.624;2023-11-19T13:44:25;3.5;;;1.2;;
49582;SDS011;36329;48.816;44.624;2023-11-19T13:47:27;2.1;;;1.1;;
49582;SDS011;36329;48.816;44.624;2023-11-19T13:50:29;1.8;;;1.3;;
49582;SDS011;36329;48.816;44.624;2023-11-19T13:53:31;2.5;;;1.3;;
49582;SDS011;36329;48.816;44.624;2023-11-19T13:56:34;1.5;;;1;;
49582;SDS011;36329;48.816;44.624;2023-11-19T13:59:39;2.4;;;1.2;;
49582;SDS011;36329;48.816;44.624;2023-11-19T14:02:42;3.1;;;1.5;;
49582;SDS011;36329;48.816;44.624;2023-11-19T14:05:45;1.5;;;1.1;;
49582;SDS011;36329;48.816;44.624;2023-11-19T14:08:47;2.8;;;1.1;;
49582;SDS011;36329;48.816;44.624;2023-11-19T14:11:49;1.5;;;1.2;;
49582;SDS011;36329;48.816;44.624;2023-11-19T14:14:51;1.9;;;1.1;;
49582;SDS011;36329;48.816;44.624;2023-11-19T14:17:53;3.4;;;1;;
49582;SDS011;36329;48.816;44.624;2023-11-19T14:20:55;2.6;;;1.1;;
49582;SDS011;36329;48.816;44.624;2023-11-19T14:23:57;2.9;;;1.4;;
49582;SDS011;36329;48.816;44.624;2023-11-19T14:26:59;2;;;1.1;;
49582;SDS011;36329;48.816;44.624;2023-11-19T14:30:01;2.4;;;1.2;;
49582;SDS011;36329;48.816;44.624;2023-11-19T14:33:04;3;;;1.3;;
49582;SDS011;36329;48.816;44.624;2023-11-19T14:36:07;4;;;2.7;;
49582;SDS011;36329;48.816;44.624;2023-11-19T14:39:09;2.7;;;2.1;;
49582;SDS011;36329;48.816;44.624;2023-11-19T14:42:11;6.1;;;3.1;;
49582;SDS011;36329;48.816;44.624;2023-11-19T14:45:13;2.6;;;1.7;;
49582;SDS011;36329;48.816;44.624;2023-11-19T14:48:15;2.9;;;1.5;;
49582;SDS011;36329;48.816;44.624;2023-11-19T14:51:17;5.7;;;1.5;;
49582;SDS011;36329;48.816;44.624;2023-11-19T14:54:19;2.8;;;1.5;;
49582;SDS011;36329;48.816;44.624;2023-11-19T14:57:21;2.8;;;1.1;;
49582;SDS011;36329;48.816;44.624;2023-11-19T15:00:23;6.7;;;3.3;;
49582;SDS011;36329;48.816;44.624;2023-11-19T15:03:25;8.9;;;3.9;;
49582;SDS011;36329;48.816;44.624;2023-11-19T15:06:27;5.4;;;2.5;;
49582;SDS011;36329;48.816;44.624;2023-11-19T15:09:29;2.6;;;1.1;;
49582;SDS011;36329;48.816;44.624;2023-11-19T15:12:31;2.6;;;1.2;;
49582;SDS011;36329;48.816;44.624;2023-11-19T15:15:33;1.8;;;1.2;;
49582;SDS011;36329;48.816;44.624;2023-11-19T15:18:35;2.5;;;1.1;;
49582;SDS011;36329;48.816;44.624;2023-11-19T15:21:37;3.7;;;0.8;;
49582;SDS011;36329;48.816;44.624;2023-11-19T15:24:39;3.3;;;1.2;;
49582;SDS011;36329;48.816;44.624;2023-11-19T15:27:41;4.1;;;1.4;;
49582;SDS011;36329;48.816;44.624;2023-11-19T15:30:43;1.5;;;1.1;;
49582;SDS011;36329;48.816;44.624;2023-11-19T15:33:45;1.4;;;1;;
49582;SDS011;36329;48.816;44.624;2023-11-19T15:36:47;1.6;;;0.9;;
49582;SDS011;36329;48.816;44.624;2023-11-19T15:39:49;2;;;0.7;;
49582;SDS011;36329;48.816;44.624;2023-11-19T15:42:51;1.5;;;1.1;;
49582;SDS011;36329;48.816;44.624;2023-11-19T15:45:53;3.5;;;1;;
49582;SDS011;36329;48.816;44.624;2023-11-19T15:48:55;1.9;;;1.3;;
49582;SDS011;36329;48.816;44.624;2023-11-19T15:51:57;1.5;;;0.9;;
49582;SDS011;36329;48.816;44.624;2023-11-19T15:54:59;2.8;;;1.1;;
49582;SDS011;36329;48.816;44.624;2023-11-19T15:58:01;1.4;;;1;;
49582;SDS011;36329;48.816;44.624;2023-11-19T16:01:03;1.3;;;1;;
49582;SDS011;36329;48.816;44.624;2023-11-19T16:04:05;2.9;;;0.9;;
49582;SDS011;36329;48.816;44.624;2023-11-19T16:07:08;2.2;;;1;;
49582;SDS011;36329;48.816;44.624;2023-11-19T16:10:11;1.8;;;1.1;;
49582;SDS011;36329;48.816;44.624;2023-11-19T16:13:14;4.7;;;1.2;;
49582;SDS011;36329;48.816;44.624;2023-11-19T16:16:16;3.2;;;1.1;;
49582;SDS011;36329;48.816;44.624;2023-11-19T16:19:18;1.3;;;0.8;;
49582;SDS011;36329;48.816;44.624;2023-11-19T16:22:20;2.1;;;0.9;;
49582;SDS011;36329;48.816;44.624;2023-11-19T16:25:23;1.5;;;1;;
49582;SDS011;36329;48.816;44.624;2023-11-19T16:28:25;2.4;;;1.1;;
49582;SDS011;36329;48.816;44.624;2023-11-19T16:31:27;2.9;;;0.9;;
49582;SDS011;36329;48.816;44.624;2023-11-19T16:34:29;1.5;;;1;;
49582;SDS011;36329;48.816;44.624;2023-11-19T16:37:31;2.4;;;1;;
49582;SDS011;36329;48.816;44.624;2023-11-19T16:40:33;2.7;;;1;;
49582;SDS011;36329;48.816;44.624;2023-11-19T16:43:35;1.6;;;0.9;;
49582;SDS011;36329;48.816;44.624;2023-11-19T16:46:38;1.8;;;1.1;;
49582;SDS011;36329;48.816;44.624;2023-11-19T16:49:40;3.3;;;1.3;;
49582;SDS011;36329;48.816;44.624;2023-11-19T16:52:42;1.3;;;1;;
49582;SDS011;36329;48.816;44.624;2023-11-19T16:55:44;1.7;;;1;;
49582;SDS011;36329;48.816;44.624;2023-11-19T16:58:46;1.6;;;0.9;;
49582;SDS011;36329;48.816;44.624;2023-11-19T17:01:48;3.3;;;1.3;;
49582;SDS011;36329;48.816;44.624;2023-11-19T17:04:50;2.7;;;1;;
49582;SDS011;36329;48.816;44.624;2023-11-19T17:07:53;3.8;;;1;;
49582;SDS011;36329;48.816;44.624;2023-11-19T17:10:55;2.4;;;1.3;;
49582;SDS011;36329;48.816;44.624;2023-11-19T17:13:57;1.5;;;0.9;;
49582;SDS011;36329;48.816;44.624;2023-11-19T17:16:59;1.8;;;1.1;;
49582;SDS011;36329;48.816;44.624;2023-11-19T17:20:02;1.7;;;1;;
49582;SDS011;36329;48.816;44.624;2023-11-19T17:23:05;1.6;;;1.1;;
49582;SDS011;36329;48.816;44.624;2023-11-19T17:26:07;1.2;;;0.8;;
49582;SDS011;36329;48.816;44.624;2023-11-19T17:29:09;1.7;;;0.9;;
49582;SDS011;36329;48.816;44.624;2023-11-19T17:32:11;2.5;;;1.2;;
49582;SDS011;36329;48.816;44.624;2023-11-19T17:35:13;2.3;;;1;;
49582;SDS011;36329;48.816;44.624;2023-11-19T17:38:15;2.3;;;1.1;;
49582;SDS011;36329;48.816;44.624;2023-11-19T17:41:17;2.1;;;1.3;;
49582;SDS011;36329;48.816;44.624;2023-11-19T17:44:19;2.1;;;1.3;;
49582;SDS011;36329;48.816;44.624;2023-11-19T17:47:22;3.6;;;1.2;;
49582;SDS011;36329;48.816;44.624;2023-11-19T17:50:23;1.5;;;1.1;;
49582;SDS011;36329;48.816;44.624;2023-11-19T17:53:25;2.4;;;1;;
49582;SDS011;36329;48.816;44.624;2023-11-19T17:56:27;3.2;;;1.1;;
49582;SDS011;36329;48.816;44.624;2023-11-19T17:59:29;1.5;;;1;;
49582;SDS011;36329;48.816;44.624;2023-11-19T18:02:31;2.2;;;1;;
49582;SDS011;36329;48.816;44.624;2023-11-19T18:05:33;1.6;;;1;;
49582;SDS011;36329;48.816;44.624;2023-11-19T18:08:35;1.3;;;0.9;;
49582;SDS011;36329;48.816;44.624;2023-11-19T18:11:37;1.5;;;1.1;;
49582;SDS011;36329;48.816;44.624;2023-11-19T18:14:39;1.2;;;0.9;;
49582;SDS011;36329;48.816;44.624;2023-11-19T18:17:42;2.4;;;1.1;;
49582;SDS011;36329;48.816;44.624;2023-11-19T18:20:44;1.9;;;1.2;;
49582;SDS011;36329;48.816;44.624;2023-11-19T18:23:46;2;;;1.1;;
49582;SDS011;36329;48.816;44.624;2023-11-19T18:26:48;2;;;1.3;;
49582;SDS011;36329;48.816;44.624;2023-11-19T18:29:50;1.3;;;0.9;;
49582;SDS011;36329;48.816;44.624;2023-11-19T18:32:52;1.4;;;0.9;;
49582;SDS011;36329;48.816;44.624;2023-11-19T18:35:54;1.4;;;1;;
49582;SDS011;36329;48.816;44.624;2023-11-19T18:38:55;1.5;;;1.1;;
49582;SDS011;36329;48.816;44.624;2023-11-19T18:41:57;1.5;;;1.1;;
49582;SDS011;36329;48.816;44.624;2023-11-19T18:45:00;1.5;;;1;;
49582;SDS011;36329;48.816;44.624;2023-11-19T18:48:02;2.4;;;0.9;;
49582;SDS011;36329;48.816;44.624;2023-11-19T18:51:04;2;;;1.2;;